createdAt,value
2022-12-17T00:00:14.944Z,22.89
2022-12-17T00:01:13.682Z,22.5
2022-12-17T00:02:13.663Z,25.29
2022-12-17T00:03:14.325Z,26.20
2022-12-17T00:04:14.215Z,24.10
2022-12-17T00:05:13.956Z,24.29
2022-12-17T00:06:12.986Z,24.10
2022-12-17T00:07:13.070Z,25.39
2022-12-17T00:08:12.850Z,25.5
2022-12-17T00:09:13.283Z,26
2022-12-17T00:10:13.400Z,26.60
2022-12-17T00:11:13.271Z,25.5
2022-12-17T00:12:13.152Z,26
2022-12-17T00:13:13.067Z,24.60
2022-12-17T00:14:12.993Z,26.5
2022-12-17T00:15:13.256Z,25
2022-12-17T00:16:13.374Z,24.70
2022-12-17T00:17:13.795Z,24.79
2022-12-17T00:18:13.922Z,24.10
2022-12-17T00:19:13.626Z,24.29
2022-12-17T00:20:13.581Z,24.10
2022-12-17T00:21:13.340Z,26.20
2022-12-17T00:22:13.238Z,25.79
2022-12-17T00:24:12.904Z,25.29
2022-12-17T00:26:13.426Z,27.10
2022-12-17T00:28:13.165Z,26.60
2022-12-17T00:29:13.112Z,27.5
2022-12-17T00:30:13.375Z,27.79
2022-12-17T00:31:13.541Z,26.89
2022-12-17T00:33:13.387Z,25.29
2022-12-17T00:34:13.308Z,27.29
2022-12-17T00:35:13.436Z,28.10
2022-12-17T00:36:13.380Z,28.39
2022-12-17T00:37:13.471Z,27.39
2022-12-17T00:38:13.135Z,24.70
2022-12-17T00:39:12.815Z,26.29
2022-12-17T00:40:13.851Z,26.39
2022-12-17T00:41:13.715Z,26.5
2022-12-17T00:42:13.523Z,27.39
2022-12-17T00:43:13.399Z,27
2022-12-17T00:44:13.331Z,26.5
2022-12-17T00:45:13.528Z,25.5
2022-12-17T00:46:13.532Z,24.29
2022-12-17T00:47:13.536Z,24.20
2022-12-17T00:48:13.283Z,25
2022-12-17T00:49:12.984Z,28.10
2022-12-17T00:50:13.056Z,26.10
2022-12-17T00:51:12.819Z,25.5
2022-12-17T00:52:13.962Z,25.10
2022-12-17T00:53:13.133Z,25
2022-12-17T00:54:13.391Z,24.89
2022-12-17T00:55:13.660Z,26.10
2022-12-17T00:56:13.409Z,25.60
2022-12-17T00:57:13.503Z,25.10
2022-12-17T00:58:13.304Z,25.39
2022-12-17T00:59:13.339Z,25.20
2022-12-17T01:00:14.260Z,25.10
2022-12-17T01:01:15.272Z,24.79
2022-12-17T01:02:13.571Z,25
2022-12-17T01:03:14.035Z,23.60
2022-12-17T01:04:13.038Z,23.39
2022-12-17T01:05:13.389Z,22.70
2022-12-17T01:06:13.154Z,21.70
2022-12-17T01:07:13.509Z,22.10
2022-12-17T01:08:13.364Z,22.5
2022-12-17T01:09:13.416Z,21.70
2022-12-17T01:10:13.379Z,22.10
2022-12-17T01:11:13.420Z,21.89
2022-12-17T01:12:13.476Z,22.20
2022-12-17T01:13:13.259Z,24.79
2022-12-17T01:14:13.194Z,25.79
2022-12-17T01:15:13.361Z,24.60
2022-12-17T01:16:13.251Z,25.39
2022-12-17T01:17:13.634Z,24.70
2022-12-17T01:18:13.601Z,23.60
2022-12-17T01:19:13.498Z,25.70
2022-12-17T01:20:13.524Z,25.29
2022-12-17T01:21:13.810Z,25.10
2022-12-17T01:22:13.660Z,24.79
2022-12-17T01:23:13.383Z,25.5
2022-12-17T01:24:13.390Z,24.5
2022-12-17T01:25:13.152Z,24.70
2022-12-17T01:26:12.813Z,23.70
2022-12-17T01:27:13.643Z,24.79
2022-12-17T01:28:13.486Z,24.20
2022-12-17T01:29:13.217Z,25.70
2022-12-17T01:30:13.303Z,24.39
2022-12-17T01:31:13.281Z,25.39
2022-12-17T01:32:13.375Z,26
2022-12-17T01:33:13.380Z,26.29
2022-12-17T01:34:13.055Z,26.39
2022-12-17T01:35:13.219Z,25.39
2022-12-17T01:36:13.333Z,25.29
2022-12-17T01:37:13.508Z,23.79
2022-12-17T01:38:13.389Z,24.60
2022-12-17T01:39:13.289Z,23.89
2022-12-17T01:40:13.076Z,24.5
2022-12-17T01:41:13.256Z,24.10
2022-12-17T01:42:13.049Z,23.5
2022-12-17T01:43:13.389Z,24.70
2022-12-17T01:44:13.639Z,23.70
2022-12-17T01:45:14.045Z,23.79
2022-12-17T01:46:13.215Z,22.60
2022-12-17T01:47:13.309Z,21.70
2022-12-17T01:48:12.973Z,21.60
2022-12-17T01:49:12.945Z,21.29
2022-12-17T01:50:13.065Z,21.10
2022-12-17T01:51:12.835Z,21.79
2022-12-17T01:52:13.865Z,21.39
2022-12-17T01:53:14.075Z,21.79
2022-12-17T01:55:13.921Z,20.60
2022-12-17T01:56:13.781Z,19.79
2022-12-17T01:57:13.498Z,19.70
2022-12-17T01:58:13.049Z,20.29
2022-12-17T01:59:12.885Z,19.39
2022-12-17T02:00:14.743Z,19.60
2022-12-17T02:01:14.231Z,19.20
2022-12-17T02:02:18.788Z,18.70
2022-12-17T02:03:13.335Z,18.5
2022-12-17T02:04:13.953Z,17.89
2022-12-17T02:05:13.734Z,17
2022-12-17T02:06:13.765Z,16.79
2022-12-17T02:07:13.739Z,16.89
2022-12-17T02:08:13.507Z,17.89
2022-12-17T02:09:13.435Z,15.89
2022-12-17T02:10:13.398Z,16.5
2022-12-17T02:11:13.214Z,17.5
2022-12-17T02:12:12.978Z,16.29
2022-12-17T02:13:12.882Z,16
2022-12-17T02:14:12.900Z,16.39
2022-12-17T02:15:13.411Z,15.5
2022-12-17T02:16:13.257Z,15.80
2022-12-17T02:17:13.483Z,15.60
2022-12-17T02:18:13.428Z,16
2022-12-17T02:19:13.617Z,15.5
2022-12-17T02:20:13.938Z,14.69
2022-12-17T02:21:13.319Z,15.30
2022-12-17T02:22:27.495Z,15.19
2022-12-17T02:23:13.468Z,15.69
2022-12-17T02:24:13.523Z,14.80
2022-12-17T02:25:13.436Z,15
2022-12-17T02:26:13.439Z,14.30
2022-12-17T02:27:13.355Z,14.89
2022-12-17T02:28:13.302Z,14.80
2022-12-17T02:29:13.102Z,14.30
2022-12-17T02:30:32.122Z,14.60
2022-12-17T02:31:13.799Z,15.30
2022-12-17T02:32:32.602Z,14.5
2022-12-17T02:34:13.042Z,15.19
2022-12-17T02:35:13.016Z,14
2022-12-17T02:36:13.234Z,15.30
2022-12-17T02:37:13.240Z,14.19
2022-12-17T02:38:13.058Z,14.5
2022-12-17T02:39:13.196Z,14.60
2022-12-17T02:41:13.293Z,14.39
2022-12-17T02:42:13.154Z,14.80
2022-12-17T02:43:13.520Z,14.69
2022-12-17T02:44:13.675Z,14.30
2022-12-17T02:45:13.805Z,14.5
2022-12-17T02:47:13.161Z,13.89
2022-12-17T02:48:13.138Z,13.5
2022-12-17T02:49:13.316Z,13.39
2022-12-17T02:50:13.520Z,14.19
2022-12-17T02:51:13.417Z,14
2022-12-17T02:52:13.285Z,13.89
2022-12-17T02:53:13.387Z,14.39
2022-12-17T02:54:13.139Z,13.89
2022-12-17T02:55:13.257Z,14.60
2022-12-17T02:56:12.752Z,13.89
2022-12-17T02:57:13.632Z,13.69
2022-12-17T02:58:13.486Z,14.19
2022-12-17T02:59:13.339Z,13.89
2022-12-17T03:01:14.172Z,15
2022-12-17T03:02:13.779Z,13.89
2022-12-17T03:03:13.401Z,13.80
2022-12-17T03:04:14.423Z,14.30
2022-12-17T03:05:42.773Z,14.69
2022-12-17T03:06:13.246Z,14.30
2022-12-17T03:07:12.951Z,13.10
2022-12-17T03:08:13.436Z,13.60
2022-12-17T03:09:13.874Z,14.60
2022-12-17T03:10:13.915Z,13.80
2022-12-17T03:11:13.749Z,13.89
2022-12-17T03:12:12.821Z,15
2022-12-17T03:13:13.754Z,14
2022-12-17T03:14:13.533Z,14.60
2022-12-17T03:15:14.038Z,13.89
2022-12-17T03:16:13.016Z,15.10
2022-12-17T03:17:13.349Z,14.60
2022-12-17T03:18:13.437Z,14.39
2022-12-17T03:19:13.476Z,14.60
2022-12-17T03:20:13.476Z,14.69
2022-12-17T03:21:13.416Z,14
2022-12-17T03:22:13.652Z,13.89
2022-12-17T03:23:13.397Z,15.30
2022-12-17T03:24:13.398Z,14.19
2022-12-17T03:25:13.432Z,13.69
2022-12-17T03:26:13.473Z,13.60
2022-12-17T03:27:13.634Z,13.69
2022-12-17T03:28:13.844Z,14.80
2022-12-17T03:29:13.993Z,13.80
2022-12-17T03:30:13.577Z,13.69
2022-12-17T03:31:13.894Z,13.80
2022-12-17T03:32:13.125Z,13.89
2022-12-17T03:33:12.814Z,14.5
2022-12-17T03:34:13.600Z,14.39
2022-12-17T03:35:13.533Z,13.69
2022-12-17T03:36:13.549Z,14.19
2022-12-17T03:37:13.621Z,13.60
2022-12-17T03:38:13.420Z,14.19
2022-12-17T03:39:13.353Z,13.80
2022-12-17T03:40:13.768Z,14.10
2022-12-17T03:41:13.569Z,14.69
2022-12-17T03:42:13.725Z,13.69
2022-12-17T03:43:14.288Z,14
2022-12-17T03:44:13.537Z,13
2022-12-17T03:45:13.763Z,15
2022-12-17T03:46:13.792Z,14
2022-12-17T03:47:13.781Z,13.80
2022-12-17T03:48:14.197Z,13.19
2022-12-17T03:49:13.349Z,13.5
2022-12-17T03:50:13.116Z,14.10
2022-12-17T03:51:13.223Z,13.60
2022-12-17T03:52:13.131Z,14.30
2022-12-17T03:53:13.154Z,14.5
2022-12-17T03:54:13.214Z,14.60
2022-12-17T03:55:13.166Z,14
2022-12-17T03:56:12.947Z,14.30
2022-12-17T03:57:16.092Z,13.89
2022-12-17T03:58:12.994Z,13.60
2022-12-17T03:59:13.091Z,13.5
2022-12-17T04:00:13.541Z,14.10
2022-12-17T04:01:13.955Z,13.60
2022-12-17T04:03:13.566Z,13.30
2022-12-17T04:04:13.945Z,13
2022-12-17T04:05:18.305Z,13.60
2022-12-17T04:06:14.013Z,13.19
2022-12-17T04:07:13.075Z,13.69
2022-12-17T04:08:13.421Z,13.10
2022-12-17T04:10:13.770Z,13.19
2022-12-17T04:11:13.122Z,12.89
2022-12-17T04:12:13.505Z,13.39
2022-12-17T04:13:13.221Z,12.80
2022-12-17T04:14:13.013Z,12.69
2022-12-17T04:16:13.535Z,12.89
2022-12-17T04:19:12.880Z,13.39
2022-12-17T04:20:14.042Z,12.5
2022-12-17T04:21:13.552Z,13
2022-12-17T04:22:13.604Z,12.5
2022-12-17T04:23:13.217Z,12.19
2022-12-17T04:24:13.334Z,12.80
2022-12-17T04:25:13.389Z,12.60
2022-12-17T04:26:13.357Z,12.10
2022-12-17T04:27:13.493Z,12.30
2022-12-17T04:28:13.278Z,12.5
2022-12-17T04:29:13.159Z,12.60
2022-12-17T04:30:13.422Z,12.80
2022-12-17T04:31:13.185Z,11.89
2022-12-17T04:32:13.708Z,12
2022-12-17T04:33:13.814Z,11.5
2022-12-17T04:34:13.703Z,11.60
2022-12-17T04:35:14.004Z,11.89
2022-12-17T04:36:12.999Z,12.60
2022-12-17T04:37:13.749Z,12.39
2022-12-17T04:38:13.040Z,12.69
2022-12-17T04:39:13.040Z,11.69
2022-12-17T04:40:14.017Z,12.89
2022-12-17T04:41:13.302Z,11.89
2022-12-17T04:42:12.961Z,12.89
2022-12-17T04:43:13.292Z,12.19
2022-12-17T04:44:13.635Z,12.30
2022-12-17T04:45:14.186Z,12.19
2022-12-17T04:46:13.452Z,13.60
2022-12-17T04:47:13.923Z,13.39
2022-12-17T04:48:13.749Z,13.60
2022-12-17T04:49:14.000Z,12.80
2022-12-17T04:50:13.317Z,12.89
2022-12-17T04:51:13.483Z,13.30
2022-12-17T04:52:13.224Z,13.89
2022-12-17T04:53:13.014Z,13.19
2022-12-17T04:54:12.786Z,13
2022-12-17T04:55:13.713Z,13.10
2022-12-17T04:56:13.738Z,12.30
2022-12-17T04:57:13.570Z,12.60
2022-12-17T04:58:13.211Z,14.39
2022-12-17T04:59:32.240Z,13.5
2022-12-17T05:00:13.614Z,14.69
2022-12-17T05:01:14.042Z,13.69
2022-12-17T05:02:13.753Z,13.5
2022-12-17T05:03:13.519Z,13.10
2022-12-17T05:04:13.807Z,14.89
2022-12-17T05:05:13.256Z,14
2022-12-17T05:06:13.147Z,14.69
2022-12-17T05:07:13.039Z,14.89
2022-12-17T05:08:13.040Z,14.80
2022-12-17T05:09:12.985Z,14.69
2022-12-17T05:10:13.831Z,14.60
2022-12-17T05:11:13.634Z,16
2022-12-17T05:12:13.674Z,15.69
2022-12-17T05:13:13.778Z,15.19
2022-12-17T05:14:13.639Z,15.89
2022-12-17T05:15:14.115Z,16.20
2022-12-17T05:16:13.061Z,15.60
2022-12-17T05:17:13.121Z,16
2022-12-17T05:18:13.113Z,15.39
2022-12-17T05:19:12.805Z,15.19
2022-12-17T05:20:13.924Z,14.39
2022-12-17T05:21:13.988Z,15
2022-12-17T05:22:13.093Z,14.89
2022-12-17T05:23:12.953Z,15.10
2022-12-17T05:24:13.251Z,14.69
2022-12-17T05:25:13.697Z,15.69
2022-12-17T05:26:13.645Z,15.19
2022-12-17T05:27:13.816Z,15.60
2022-12-17T05:28:13.708Z,16.20
2022-12-17T05:29:15.996Z,16.5
2022-12-17T05:30:13.365Z,15.69
2022-12-17T05:31:13.417Z,17.20
2022-12-17T05:32:13.702Z,16.29
2022-12-17T05:33:13.605Z,16.20
2022-12-17T05:34:13.947Z,16.10
2022-12-17T05:35:13.376Z,15.89
2022-12-17T05:36:13.370Z,14.19
2022-12-17T05:37:13.288Z,15
2022-12-17T05:38:13.299Z,15.30
2022-12-17T05:39:13.418Z,15
2022-12-17T05:40:13.477Z,15.10
2022-12-17T05:41:13.463Z,13.60
2022-12-17T05:42:13.321Z,14.30
2022-12-17T05:43:13.173Z,14
2022-12-17T05:44:13.286Z,13.5
2022-12-17T05:45:13.630Z,13.39
2022-12-17T05:46:13.422Z,13.19
2022-12-17T05:47:13.507Z,13
2022-12-17T05:48:13.398Z,12.80
2022-12-17T05:49:13.447Z,13.39
2022-12-17T05:50:13.713Z,12.39
2022-12-17T05:51:13.748Z,12.30
2022-12-17T05:52:13.876Z,12.39
2022-12-17T05:53:13.231Z,12.80
2022-12-17T05:54:13.341Z,12.5
2022-12-17T05:55:13.667Z,12.30
2022-12-17T05:56:13.541Z,11.5
2022-12-17T05:57:13.124Z,12.10
2022-12-17T05:58:12.914Z,12.5
2022-12-17T05:59:13.809Z,12.30
2022-12-17T06:00:14.496Z,11.89
2022-12-17T06:01:14.250Z,11.39
2022-12-17T06:02:13.972Z,12.19
2022-12-17T06:03:13.375Z,12
2022-12-17T06:04:13.712Z,12.30
2022-12-17T06:05:13.136Z,12.10
2022-12-17T06:06:13.222Z,11.39
2022-12-17T06:07:13.571Z,11.5
2022-12-17T06:08:13.611Z,11.19
2022-12-17T06:09:13.828Z,12.80
2022-12-17T06:10:14.159Z,12.19
2022-12-17T06:11:13.433Z,13
2022-12-17T06:12:13.485Z,15.10
2022-12-17T06:13:13.375Z,13.89
2022-12-17T06:14:13.096Z,14.19
2022-12-17T06:15:13.485Z,13.39
2022-12-17T06:16:13.682Z,13.19
2022-12-17T06:17:13.604Z,14
2022-12-17T06:18:16.880Z,13.5
2022-12-17T06:19:13.297Z,13.60
2022-12-17T06:20:13.438Z,14.30
2022-12-17T06:21:13.571Z,13.80
2022-12-17T06:22:13.425Z,14
2022-12-17T06:23:13.772Z,13.39
2022-12-17T06:24:13.596Z,12.80
2022-12-17T06:25:14.172Z,13.10
2022-12-17T06:26:13.307Z,12.39
2022-12-17T06:27:13.329Z,12.69
2022-12-17T06:28:13.484Z,13.19
2022-12-17T06:29:13.409Z,12.5
2022-12-17T06:30:18.490Z,12.10
2022-12-17T06:31:13.457Z,11.80
2022-12-17T06:32:13.735Z,12.5
2022-12-17T06:33:13.806Z,11.80
2022-12-17T06:35:13.799Z,12.39
2022-12-17T06:37:13.660Z,12.5
2022-12-17T06:38:13.873Z,12.30
2022-12-17T06:39:13.228Z,12.5
2022-12-17T06:40:13.558Z,12.69
2022-12-17T06:42:13.382Z,13.5
2022-12-17T06:43:13.552Z,13.39
2022-12-17T06:44:13.703Z,12.60
2022-12-17T06:45:13.944Z,11.69
2022-12-17T06:46:12.954Z,12.39
2022-12-17T06:47:14.001Z,12.69
2022-12-17T06:48:13.162Z,11.60
2022-12-17T06:49:13.152Z,11.5
2022-12-17T06:50:13.387Z,11.69
2022-12-17T06:51:13.358Z,11.5
2022-12-17T06:52:13.533Z,11.60
2022-12-17T06:53:13.234Z,12.30
2022-12-17T06:54:13.423Z,11.80
2022-12-17T06:55:13.673Z,10.89
2022-12-17T06:56:13.946Z,11.39
2022-12-17T06:58:13.600Z,11.5
2022-12-17T06:59:13.502Z,11.39
2022-12-17T07:00:14.410Z,11.69
2022-12-17T07:01:14.205Z,11.80
2022-12-17T07:02:13.950Z,11.5
2022-12-17T07:03:14.974Z,11.80
2022-12-17T07:04:13.979Z,12.30
2022-12-17T07:05:13.475Z,12.39
2022-12-17T07:06:13.433Z,12.19
2022-12-17T07:07:13.524Z,11.5
2022-12-17T07:08:13.381Z,11.69
2022-12-17T07:09:13.636Z,11.5
2022-12-17T07:11:13.215Z,11.80
2022-12-17T07:12:14.004Z,11.39
2022-12-17T07:13:13.073Z,11.80
2022-12-17T07:14:14.186Z,12.39
2022-12-17T07:15:13.571Z,11.5
2022-12-17T07:16:14.225Z,11.39
2022-12-17T07:17:13.459Z,11.80
2022-12-17T07:18:13.644Z,11.30
2022-12-17T07:19:13.742Z,11.19
2022-12-17T07:20:13.533Z,10.39
2022-12-17T07:21:13.777Z,11.30
2022-12-17T07:22:13.726Z,11.10
2022-12-17T07:23:14.036Z,10.30
2022-12-17T07:25:13.423Z,11.69
2022-12-17T07:26:13.522Z,11.30
2022-12-17T07:27:13.968Z,11.39
2022-12-17T07:28:13.211Z,12
2022-12-17T07:29:13.473Z,11.80
2022-12-17T07:30:13.963Z,10.39
2022-12-17T07:31:13.491Z,11.10
2022-12-17T07:32:14.286Z,11.19
2022-12-17T07:33:13.273Z,11.80
2022-12-17T07:34:13.661Z,11.60
2022-12-17T07:35:13.857Z,11.69
2022-12-17T07:36:13.311Z,11.89
2022-12-17T07:37:17.425Z,11.60
2022-12-17T07:39:14.101Z,12
2022-12-17T07:40:13.388Z,11.80
2022-12-17T07:41:13.542Z,11.30
2022-12-17T07:42:14.112Z,11.69
2022-12-17T07:43:13.405Z,11.89
2022-12-17T07:45:14.331Z,11.69
2022-12-17T07:46:13.770Z,11.30
2022-12-17T07:47:13.723Z,11.5
2022-12-17T07:48:13.948Z,11.69
2022-12-17T07:49:13.475Z,10.89
2022-12-17T07:50:13.087Z,11.10
2022-12-17T07:51:13.619Z,11.19
2022-12-17T07:53:13.635Z,11.5
2022-12-17T07:54:13.618Z,11.30
2022-12-17T07:55:18.107Z,11.10
2022-12-17T07:56:13.355Z,11.39
2022-12-17T07:57:13.763Z,11.60
2022-12-17T07:59:13.516Z,10.80
2022-12-17T08:00:14.620Z,11.39
2022-12-17T08:01:14.414Z,10.80
2022-12-17T08:02:14.397Z,11
2022-12-17T08:03:13.111Z,10.39
2022-12-17T08:04:13.832Z,11.19
2022-12-17T08:05:13.774Z,12
2022-12-17T08:06:14.059Z,11.60
2022-12-17T08:07:14.237Z,11.10
2022-12-17T08:09:14.121Z,11.39
2022-12-17T08:10:13.808Z,10.89
2022-12-17T08:11:13.483Z,11
2022-12-17T08:12:13.746Z,11.10
2022-12-17T08:13:14.446Z,11.39
2022-12-17T08:14:13.672Z,10.80
2022-12-17T08:15:14.703Z,10.69
2022-12-17T08:16:14.136Z,11.5
2022-12-17T08:17:13.748Z,10.60
2022-12-17T08:18:13.641Z,10.89
2022-12-17T08:19:13.922Z,11
2022-12-17T08:20:14.316Z,9.699
2022-12-17T08:21:13.862Z,10.30
2022-12-17T08:22:13.260Z,10.39
2022-12-17T08:23:13.441Z,10.5
2022-12-17T08:24:14.152Z,10.39
2022-12-17T08:25:13.969Z,10.69
2022-12-17T08:26:13.391Z,10.39
2022-12-17T08:27:13.670Z,10.60
2022-12-17T08:29:13.475Z,10.10
2022-12-17T08:30:14.176Z,11.10
2022-12-17T08:31:14.216Z,11.30
2022-12-17T08:32:13.700Z,10.89
2022-12-17T08:33:13.339Z,10.60
2022-12-17T08:34:13.773Z,11.39
2022-12-17T08:35:14.278Z,11.30
2022-12-17T08:36:13.928Z,11.69
2022-12-17T08:37:13.592Z,12.30
2022-12-17T08:38:13.951Z,15.39
2022-12-17T08:39:13.462Z,14.39
2022-12-17T08:40:13.764Z,12.89
2022-12-17T08:41:13.908Z,13.60
2022-12-17T08:42:13.136Z,12.80
2022-12-17T08:43:13.300Z,12.39
2022-12-17T08:46:13.227Z,12.5
2022-12-17T08:47:13.625Z,12.39
2022-12-17T08:48:14.081Z,11.30
2022-12-17T08:49:13.651Z,12.30
2022-12-17T08:50:14.249Z,11.60
2022-12-17T08:51:13.726Z,11.5
2022-12-17T08:52:13.463Z,11.30
2022-12-17T08:53:13.589Z,12
2022-12-17T08:54:14.188Z,11
2022-12-17T08:55:13.719Z,11.89
2022-12-17T08:56:13.927Z,11.5
2022-12-17T08:57:22.621Z,11.19
2022-12-17T08:58:13.290Z,11.39
2022-12-17T08:59:13.317Z,11.69
2022-12-17T09:00:14.456Z,11.80
2022-12-17T09:02:14.027Z,11.69
2022-12-17T09:03:14.171Z,11.5
2022-12-17T09:04:14.030Z,11.80
2022-12-17T09:05:13.614Z,10.69
2022-12-17T09:06:13.656Z,11.30
2022-12-17T09:07:14.028Z,10.89
2022-12-17T09:08:13.519Z,11.30
2022-12-17T09:09:13.950Z,11
2022-12-17T09:10:13.560Z,11.39
2022-12-17T09:11:18.938Z,11.89
2022-12-17T09:12:13.791Z,12
2022-12-17T09:13:13.148Z,10.89
2022-12-17T09:14:13.261Z,11.89
2022-12-17T09:15:14.081Z,11.69
2022-12-17T09:17:14.010Z,12
2022-12-17T09:18:13.352Z,12.19
2022-12-17T09:19:13.388Z,11.5
2022-12-17T09:20:14.199Z,12.19
2022-12-17T09:21:13.471Z,12.10
2022-12-17T09:22:13.958Z,14
2022-12-17T09:23:13.607Z,13.5
2022-12-17T09:24:13.970Z,13.10
2022-12-17T09:25:13.233Z,12.39
2022-12-17T09:27:13.608Z,12.19
2022-12-17T09:28:13.799Z,12.89
2022-12-17T09:29:13.335Z,12.5
2022-12-17T09:30:14.413Z,13.10
2022-12-17T09:31:14.085Z,12.60
2022-12-17T09:32:13.473Z,11.89
2022-12-17T09:34:13.737Z,11.60
2022-12-17T09:35:13.858Z,12.10
2022-12-17T09:36:13.286Z,11.39
2022-12-17T09:37:13.637Z,12.39
2022-12-17T09:38:13.827Z,11.69
2022-12-17T09:39:13.335Z,11.60
2022-12-17T09:40:14.001Z,10.80
2022-12-17T09:41:13.199Z,11.5
2022-12-17T09:42:13.625Z,12
2022-12-17T09:43:13.877Z,12.69
2022-12-17T09:44:13.825Z,12.10
2022-12-17T09:45:13.537Z,12
2022-12-17T09:46:13.593Z,11.39
2022-12-17T09:47:14.011Z,12
2022-12-17T09:48:13.510Z,11.39
2022-12-17T09:49:13.810Z,11.69
2022-12-17T09:50:13.518Z,11.30
2022-12-17T09:51:14.130Z,11.60
2022-12-17T09:52:13.693Z,11.39
2022-12-17T09:53:13.886Z,11.5
2022-12-17T09:54:13.109Z,11.19
2022-12-17T09:55:13.354Z,11.5
2022-12-17T09:56:13.520Z,10.80
2022-12-17T09:57:13.994Z,10.89
2022-12-17T09:58:13.384Z,11.30
2022-12-17T09:59:13.712Z,10.39
2022-12-17T10:00:14.031Z,10.60
2022-12-17T10:02:14.215Z,10.39
2022-12-17T10:03:14.335Z,10.60
2022-12-17T10:05:13.809Z,10.39
2022-12-17T10:06:17.891Z,10.30
2022-12-17T10:07:14.047Z,9.600
2022-12-17T10:08:13.335Z,9.899
2022-12-17T10:09:14.031Z,9.600
2022-12-17T10:10:13.786Z,9.699
2022-12-17T10:11:13.456Z,9.5
2022-12-17T10:12:13.840Z,10.10
2022-12-17T10:14:13.668Z,10
2022-12-17T10:15:14.344Z,10.30
2022-12-17T10:16:14.032Z,10
2022-12-17T10:17:13.640Z,10.69
2022-12-17T10:18:14.321Z,10.30
2022-12-17T10:21:13.974Z,11
2022-12-17T10:22:13.315Z,10.39
2022-12-17T10:23:13.603Z,10.89
2022-12-17T10:24:18.592Z,11.19
2022-12-17T10:25:14.133Z,10.60
2022-12-17T10:26:14.213Z,12
2022-12-17T10:27:14.084Z,11.39
2022-12-17T10:29:13.873Z,12.30
2022-12-17T10:30:13.632Z,11.80
2022-12-17T10:31:14.030Z,11.30
2022-12-17T10:33:13.956Z,10.89
2022-12-17T10:34:13.438Z,11.19
2022-12-17T10:35:13.747Z,11.30
2022-12-17T10:36:13.657Z,11.10
2022-12-17T10:37:14.036Z,10.69
2022-12-17T10:39:13.581Z,11
2022-12-17T10:40:13.661Z,10.69
2022-12-17T10:41:14.054Z,10.80
2022-12-17T10:42:13.738Z,11.19
2022-12-17T10:43:14.221Z,10.69
2022-12-17T10:44:14.303Z,10.30
2022-12-17T10:45:14.712Z,10.69
2022-12-17T10:46:13.589Z,11
2022-12-17T10:47:14.014Z,11.19
2022-12-17T10:49:13.444Z,10.5
2022-12-17T10:50:14.150Z,11.60
2022-12-17T10:51:13.772Z,10.80
2022-12-17T10:52:14.524Z,10.89
2022-12-17T10:53:13.965Z,11.19
2022-12-17T10:54:13.627Z,10.60
2022-12-17T10:55:14.407Z,11
2022-12-17T10:56:14.128Z,11.5
2022-12-17T10:57:14.469Z,11
2022-12-17T10:58:13.077Z,11.10
2022-12-17T10:59:13.855Z,10.69
2022-12-17T11:00:14.401Z,11.30
2022-12-17T11:01:14.827Z,11.39
2022-12-17T11:02:14.046Z,11.5
2022-12-17T11:03:13.939Z,11
2022-12-17T11:04:14.254Z,10.60
2022-12-17T11:05:14.193Z,11.19
2022-12-17T11:07:14.216Z,10.60
2022-12-17T11:09:14.257Z,10.19
2022-12-17T11:10:14.417Z,10.39
2022-12-17T11:11:13.702Z,10.69
2022-12-17T11:12:13.493Z,9.899
2022-12-17T11:13:13.651Z,10.10
2022-12-17T11:14:14.422Z,10.30
2022-12-17T11:15:14.274Z,11
2022-12-17T11:16:13.958Z,10.60
2022-12-17T11:17:14.007Z,11.10
2022-12-17T11:18:13.345Z,10.5
2022-12-17T11:19:13.512Z,10.89
2022-12-17T11:20:14.531Z,11.19
2022-12-17T11:21:14.304Z,10.80
2022-12-17T11:22:14.074Z,11.5
2022-12-17T11:23:13.847Z,10.30
2022-12-17T11:24:19.132Z,10.89
2022-12-17T11:25:13.550Z,11.89
2022-12-17T11:26:13.750Z,10.60
2022-12-17T11:27:13.137Z,11.80
2022-12-17T11:28:13.410Z,11.69
2022-12-17T11:29:13.455Z,11.89
2022-12-17T11:30:14.535Z,11.39
2022-12-17T11:32:13.632Z,12
2022-12-17T11:33:13.835Z,11.89
2022-12-17T11:34:13.024Z,10.69
2022-12-17T11:35:13.846Z,11.30
2022-12-17T11:36:13.220Z,10.89
2022-12-17T11:37:14.168Z,10.69
2022-12-17T11:38:13.768Z,10.89
2022-12-17T11:39:13.582Z,10.5
2022-12-17T11:41:14.344Z,10.30
2022-12-17T11:42:14.144Z,10.19
2022-12-17T11:43:14.144Z,10.69
2022-12-17T11:44:13.909Z,11
2022-12-17T11:45:14.016Z,10.5
2022-12-17T11:46:13.499Z,11.69
2022-12-17T11:47:14.218Z,10.89
2022-12-17T11:48:13.838Z,11.39
2022-12-17T11:49:13.298Z,10.19
2022-12-17T11:50:13.760Z,10.89
2022-12-17T11:51:13.278Z,10.5
2022-12-17T11:52:13.901Z,11.19
2022-12-17T11:53:13.406Z,10.5
2022-12-17T11:54:14.128Z,10.89
2022-12-17T11:55:13.714Z,10.69
2022-12-17T11:56:14.103Z,10.30
2022-12-17T11:57:14.035Z,11.10
2022-12-17T11:58:27.582Z,10.80
2022-12-17T11:59:13.273Z,10.60
2022-12-17T12:00:14.601Z,11.10
2022-12-17T12:01:13.748Z,10.80
2022-12-17T12:02:13.136Z,10.89
2022-12-17T12:03:13.852Z,10.19
2022-12-17T12:04:14.471Z,10.60
2022-12-17T12:06:13.743Z,10.5
2022-12-17T12:07:13.178Z,10.30
2022-12-17T12:08:13.643Z,9.899
2022-12-17T12:09:13.271Z,10.10
2022-12-17T12:11:13.246Z,11.19
2022-12-17T12:12:13.979Z,10.19
2022-12-17T12:13:13.434Z,9.5
2022-12-17T12:14:13.910Z,10.30
2022-12-17T12:15:13.808Z,10
2022-12-17T12:16:14.114Z,9.800
2022-12-17T12:17:14.424Z,9.899
2022-12-17T12:18:13.825Z,10.69
2022-12-17T12:19:13.335Z,9.100
2022-12-17T12:20:13.984Z,10.39
2022-12-17T12:21:13.779Z,10.5
2022-12-17T12:22:35.275Z,9.899
2022-12-17T12:23:13.563Z,9.800
2022-12-17T12:24:14.521Z,10.39
2022-12-17T12:25:14.580Z,9.800
2022-12-17T12:26:13.963Z,9.300
2022-12-17T12:27:13.361Z,9.5
2022-12-17T12:28:13.704Z,10.10
2022-12-17T12:29:13.406Z,9.699
2022-12-17T12:30:14.629Z,10.30
2022-12-17T12:31:14.277Z,10.5
2022-12-17T12:32:13.970Z,10
2022-12-17T12:34:14.148Z,9.699
2022-12-17T12:35:13.756Z,10.10
2022-12-17T12:36:13.576Z,10
2022-12-17T12:37:14.360Z,10.19
2022-12-17T12:38:14.016Z,10.39
2022-12-17T12:39:13.414Z,10
2022-12-17T12:40:14.523Z,10.10
2022-12-17T12:41:13.338Z,10.30
2022-12-17T12:42:14.068Z,10.10
2022-12-17T12:43:13.615Z,10
2022-12-17T12:44:13.751Z,10.39
2022-12-17T12:45:13.697Z,10.30
2022-12-17T12:46:13.562Z,10.19
2022-12-17T12:47:13.042Z,10.80
2022-12-17T12:48:13.598Z,10.10
2022-12-17T12:49:14.111Z,10.30
2022-12-17T12:51:13.455Z,10.39
2022-12-17T12:52:13.998Z,10.30
2022-12-17T12:53:13.605Z,11.10
2022-12-17T12:54:14.239Z,11.19
2022-12-17T12:55:14.194Z,11.69
2022-12-17T12:56:13.779Z,10.60
2022-12-17T12:57:14.389Z,10.69
2022-12-17T12:58:13.846Z,10.89
2022-12-17T12:59:13.279Z,10.69
2022-12-17T13:00:15.061Z,10.10
2022-12-17T13:01:14.589Z,10.60
2022-12-17T13:02:14.048Z,11.10
2022-12-17T13:03:14.511Z,10.10
2022-12-17T13:04:14.870Z,10.80
2022-12-17T13:05:14.193Z,10.39
2022-12-17T13:06:13.711Z,10.60
2022-12-17T13:08:13.957Z,10.10
2022-12-17T13:09:14.132Z,10.69
2022-12-17T13:10:14.231Z,10.60
2022-12-17T13:11:13.992Z,10.10
2022-12-17T13:12:13.385Z,10.89
2022-12-17T13:13:14.139Z,9.600
2022-12-17T13:14:13.614Z,10.30
2022-12-17T13:16:13.803Z,10.60
2022-12-17T13:17:13.840Z,10.5
2022-12-17T13:18:13.392Z,10.39
2022-12-17T13:19:14.194Z,10.89
2022-12-17T13:20:13.980Z,9.800
2022-12-17T13:21:14.053Z,11
2022-12-17T13:22:16.572Z,10.69
2022-12-17T13:24:14.535Z,11.89
2022-12-17T13:25:14.549Z,11.5
2022-12-17T13:26:13.896Z,11.10
2022-12-17T13:27:13.484Z,10.69
2022-12-17T13:29:14.547Z,10.60
2022-12-17T13:30:13.929Z,10.39
2022-12-17T13:31:13.512Z,11.5
2022-12-17T13:32:14.381Z,11.10
2022-12-17T13:33:14.183Z,11.80
2022-12-17T13:34:13.813Z,11
2022-12-17T13:35:13.669Z,11.60
2022-12-17T13:36:13.478Z,10.5
2022-12-17T13:37:14.445Z,10.80
2022-12-17T13:38:13.463Z,11.30
2022-12-17T13:39:14.140Z,11
2022-12-17T13:40:13.836Z,10.60
2022-12-17T13:41:13.800Z,10.69
2022-12-17T13:42:13.398Z,12.5
2022-12-17T13:43:14.301Z,11.80
2022-12-17T13:44:14.235Z,11.30
2022-12-17T13:45:14.303Z,11.10
2022-12-17T13:46:14.324Z,12
2022-12-17T13:47:13.493Z,13.30
2022-12-17T13:48:14.237Z,12.30
2022-12-17T13:49:14.286Z,12.19
2022-12-17T13:50:35.140Z,11.89
2022-12-17T13:51:13.456Z,12.19
2022-12-17T13:52:14.179Z,11.80
2022-12-17T13:53:13.457Z,12.10
2022-12-17T13:54:13.623Z,11.19
2022-12-17T13:55:13.639Z,11.5